Time;durP1;ratioP1;P1;durP2;ratioP2;P2;SDS_P1;SDS_P2;PMS_P1;PMS_P2;Temp;Humidity;BMP_temperature;BMP_pressure;BME280_temperature;BME280_humidity;BME280_pressure;Samples;Min_cycle;Max_cycle;Signal;HPM_P1;HPM_P2
2022/10/09 00:00:20;;;;;;;7.90;3.47;;;;;;;;;;4983656;28;20453;-57
2022/10/09 00:02:46;;;;;;;4.10;2.80;;;;;;;;;;4960812;28;20440;-56
2022/10/09 00:05:12;;;;;;;5.10;3.20;;;;;;;;;;4984178;28;20440;-56
2022/10/09 00:07:38;;;;;;;6.20;3.10;;;;;;;;;;4966469;28;20445;-56
2022/10/09 00:10:05;;;;;;;5.27;3.10;;;;;;;;;;4984663;28;20441;-55
2022/10/09 00:12:31;;;;;;;5.37;2.87;;;;;;;;;;4943248;28;20485;-56
2022/10/09 00:14:57;;;;;;;3.63;2.53;;;;;;;;;;4981166;28;20440;-58
2022/10/09 00:17:22;;;;;;;3.50;2.80;;;;;;;;;;4958894;28;20457;-56
2022/10/09 00:19:48;;;;;;;4.97;3.37;;;;;;;;;;4980543;28;20446;-56
2022/10/09 00:22:14;;;;;;;5.17;3.37;;;;;;;;;;4973969;28;20441;-56
2022/10/09 00:24:42;;;;;;;4.20;3.03;;;;;;;;;;4976119;28;20432;-57
2022/10/09 00:27:08;;;;;;;4.33;2.97;;;;;;;;;;4969313;28;20448;-57
2022/10/09 00:29:34;;;;;;;9.20;3.60;;;;;;;;;;4980162;28;20445;-57
2022/10/09 00:32:00;;;;;;;6.90;2.73;;;;;;;;;;4951611;28;23759;-57
2022/10/09 00:34:26;;;;;;;4.83;3.13;;;;;;;;;;4977576;28;20464;-57
2022/10/09 00:36:52;;;;;;;4.23;2.53;;;;;;;;;;4977896;28;20576;-57
2022/10/09 00:39:18;;;;;;;4.67;2.70;;;;;;;;;;4981176;28;20456;-57
2022/10/09 00:41:44;;;;;;;3.30;2.83;;;;;;;;;;4967336;28;20453;-57
2022/10/09 00:44:28;;;;;;;4.87;3.10;;;;;;;;;;4978336;28;22960;-58
2022/10/09 00:46:54;;;;;;;6.70;3.30;;;;;;;;;;4976954;28;20433;-56
2022/10/09 00:49:24;;;;;;;6.40;2.90;;;;;;;;;;4981257;28;20442;-56
2022/10/09 00:51:50;;;;;;;3.80;2.93;;;;;;;;;;4955406;28;20997;-57
2022/10/09 00:54:17;;;;;;;4.70;2.90;;;;;;;;;;4979297;28;20445;-56
2022/10/09 00:56:43;;;;;;;3.90;2.80;;;;;;;;;;4958155;28;20493;-57
2022/10/09 00:59:09;;;;;;;4.50;3.37;;;;;;;;;;4976966;28;20477;-57
2022/10/09 01:01:35;;;;;;;8.80;2.80;;;;;;;;;;4979966;28;23971;-59
2022/10/09 01:04:01;;;;;;;8.03;3.73;;;;;;;;;;4983675;28;20448;-57
2022/10/09 01:06:33;;;;;;;5.73;2.97;;;;;;;;;;4977544;28;20441;-57
2022/10/09 01:09:13;;;;;;;4.37;3.20;;;;;;;;;;4977024;28;20491;-56
2022/10/09 01:11:42;;;;;;;4.97;3.23;;;;;;;;;;5011187;28;20480;-58
2022/10/09 01:14:12;;;;;;;5.70;2.80;;;;;;;;;;4960754;28;20438;-57
2022/10/09 01:16:51;;;;;;;6.30;3.00;;;;;;;;;;4975930;28;20448;-57
2022/10/09 01:19:34;;;;;;;4.47;2.90;;;;;;;;;;5002172;28;20453;-56
2022/10/09 01:22:18;;;;;;;4.87;3.10;;;;;;;;;;4976641;28;20598;-57
2022/10/09 01:24:47;;;;;;;4.90;3.20;;;;;;;;;;4959721;28;20449;-57
2022/10/09 01:27:20;;;;;;;9.47;3.20;;;;;;;;;;5012633;28;20445;-57
2022/10/09 01:29:56;;;;;;;7.73;3.77;;;;;;;;;;4973535;28;20481;-59
2022/10/09 01:32:26;;;;;;;5.80;3.67;;;;;;;;;;4981327;28;20477;-57
2022/10/09 01:34:52;;;;;;;6.33;2.93;;;;;;;;;;4982174;28;20454;-57
2022/10/09 01:37:19;;;;;;;4.97;3.10;;;;;;;;;;4982450;28;20455;-57
2022/10/09 01:39:45;;;;;;;4.93;3.47;;;;;;;;;;4977781;28;20484;-57
2022/10/09 01:42:11;;;;;;;6.37;4.57;;;;;;;;;;4978428;28;20453;-57
2022/10/09 01:44:37;;;;;;;5.83;4.87;;;;;;;;;;4988501;28;20469;-58
2022/10/09 01:47:03;;;;;;;6.93;4.40;;;;;;;;;;4977957;28;20444;-58
2022/10/09 01:49:41;;;;;;;5.63;4.00;;;;;;;;;;4960291;28;20462;-58
2022/10/09 01:52:19;;;;;;;5.57;3.70;;;;;;;;;;4978819;28;20468;-58
2022/10/09 01:55:04;;;;;;;8.00;4.03;;;;;;;;;;4956220;28;20532;-57
2022/10/09 01:57:50;;;;;;;5.33;3.90;;;;;;;;;;4977220;28;20448;-57
2022/10/09 02:00:16;;;;;;;5.43;4.50;;;;;;;;;;4975442;28;20998;-57
2022/10/09 02:02:42;;;;;;;5.20;3.33;;;;;;;;;;5009422;28;20954;-58
2022/10/09 02:05:13;;;;;;;4.60;3.50;;;;;;;;;;4951021;28;20970;-55
2022/10/09 02:07:39;;;;;;;7.13;4.07;;;;;;;;;;4980577;28;20440;-56
2022/10/09 02:10:06;;;;;;;6.40;3.80;;;;;;;;;;4978611;28;20812;-57
2022/10/09 02:12:32;;;;;;;6.37;3.40;;;;;;;;;;5004239;28;20492;-57
2022/10/09 02:14:59;;;;;;;5.37;3.57;;;;;;;;;;4988258;28;20939;-58
2022/10/09 02:17:28;;;;;;;3.67;2.77;;;;;;;;;;4977925;28;20442;-57
2022/10/09 02:19:56;;;;;;;4.77;3.33;;;;;;;;;;5007172;28;20449;-57
2022/10/09 02:22:23;;;;;;;5.80;3.20;;;;;;;;;;5007823;28;20444;-57
2022/10/09 02:24:49;;;;;;;5.10;3.20;;;;;;;;;;4960384;28;20565;-57
2022/10/09 02:27:15;;;;;;;8.23;3.60;;;;;;;;;;4984584;28;20579;-57
2022/10/09 02:29:41;;;;;;;5.60;3.47;;;;;;;;;;4979112;28;20433;-57
2022/10/09 02:32:08;;;;;;;6.83;3.17;;;;;;;;;;4980214;28;20578;-57
2022/10/09 02:34:33;;;;;;;4.80;3.20;;;;;;;;;;4979129;28;20449;-57
2022/10/09 02:36:59;;;;;;;5.60;3.03;;;;;;;;;;4979916;28;20450;-58
2022/10/09 02:39:25;;;;;;;4.73;3.20;;;;;;;;;;4980253;28;20737;-58
2022/10/09 02:41:52;;;;;;;4.80;3.50;;;;;;;;;;4972195;28;20453;-56
2022/10/09 02:44:27;;;;;;;7.37;3.23;;;;;;;;;;4964960;28;20451;-56
2022/10/09 02:46:53;;;;;;;6.73;3.80;;;;;;;;;;4971694;28;20838;-56
2022/10/09 02:49:19;;;;;;;7.63;3.53;;;;;;;;;;4981672;28;20445;-55
2022/10/09 02:51:45;;;;;;;5.40;3.77;;;;;;;;;;4973384;28;21709;-58
2022/10/09 02:54:11;;;;;;;5.30;3.67;;;;;;;;;;4982134;28;20463;-56
2022/10/09 02:56:37;;;;;;;4.87;3.23;;;;;;;;;;4971903;28;20449;-56
2022/10/09 02:59:03;;;;;;;3.93;2.77;;;;;;;;;;4978241;28;21004;-56
2022/10/09 03:01:29;;;;;;;3.27;2.60;;;;;;;;;;4973846;28;20444;-56
2022/10/09 03:03:55;;;;;;;4.50;3.20;;;;;;;;;;4981855;28;20432;-56
2022/10/09 03:06:24;;;;;;;5.10;3.27;;;;;;;;;;4968937;28;20449;-56
2022/10/09 03:08:50;;;;;;;8.87;3.50;;;;;;;;;;4985403;28;20467;-56
2022/10/09 03:11:17;;;;;;;5.53;3.10;;;;;;;;;;4979395;28;20973;-56
2022/10/09 03:13:43;;;;;;;4.60;3.67;;;;;;;;;;4987685;28;20440;-55
2022/10/09 03:16:13;;;;;;;5.10;3.03;;;;;;;;;;4961203;28;20489;-56
2022/10/09 03:18:39;;;;;;;6.90;3.30;;;;;;;;;;4984462;28;20472;-57
2022/10/09 03:21:08;;;;;;;6.70;3.80;;;;;;;;;;4983600;28;20527;-56
2022/10/09 03:23:34;;;;;;;3.70;2.77;;;;;;;;;;4981112;28;20425;-58
2022/10/09 03:26:01;;;;;;;5.40;2.80;;;;;;;;;;4958425;28;20934;-56
2022/10/09 03:28:27;;;;;;;5.37;3.47;;;;;;;;;;4986843;28;20540;-55
2022/10/09 03:30:53;;;;;;;4.87;2.90;;;;;;;;;;4956940;28;20450;-58
2022/10/09 03:33:19;;;;;;;3.10;2.80;;;;;;;;;;4981040;28;20484;-60
2022/10/09 03:35:46;;;;;;;5.30;3.50;;;;;;;;;;4956079;28;20456;-54
2022/10/09 03:38:12;;;;;;;5.57;3.80;;;;;;;;;;4986911;28;20441;-56
2022/10/09 03:40:38;;;;;;;8.40;2.40;;;;;;;;;;4977595;28;20457;-57
2022/10/09 03:43:04;;;;;;;4.10;3.10;;;;;;;;;;4980111;28;20523;-56
2022/10/09 03:45:30;;;;;;;3.70;2.80;;;;;;;;;;4983340;28;20436;-58
2022/10/09 03:47:56;;;;;;;7.50;3.87;;;;;;;;;;4986724;28;20432;-57
2022/10/09 03:50:26;;;;;;;4.30;2.97;;;;;;;;;;4976615;28;20865;-57
2022/10/09 03:52:52;;;;;;;8.73;3.47;;;;;;;;;;4988290;28;20512;-56
2022/10/09 03:55:19;;;;;;;6.40;4.20;;;;;;;;;;4961195;28;20458;-57
2022/10/09 03:57:44;;;;;;;6.30;3.40;;;;;;;;;;4989390;28;20435;-56
2022/10/09 04:00:11;;;;;;;4.90;2.70;;;;;;;;;;4982951;28;20417;-56
2022/10/09 04:02:38;;;;;;;5.20;3.53;;;;;;;;;;4985877;28;20440;-56
2022/10/09 04:05:04;;;;;;;10.37;3.63;;;;;;;;;;4969764;28;21292;-62
2022/10/09 04:07:30;;;;;;;6.80;2.90;;;;;;;;;;4976856;28;20724;-57
2022/10/09 04:09:56;;;;;;;6.40;3.50;;;;;;;;;;4998103;28;20711;-57
2022/10/09 04:12:22;;;;;;;5.27;3.07;;;;;;;;;;4971784;28;20478;-56
2022/10/09 04:14:48;;;;;;;4.00;2.83;;;;;;;;;;4986258;28;20429;-56
2022/10/09 04:17:14;;;;;;;3.90;2.80;;;;;;;;;;4977531;28;20491;-57
2022/10/09 04:19:40;;;;;;;6.27;2.80;;;;;;;;;;4980350;28;20551;-58
2022/10/09 04:22:06;;;;;;;5.40;3.30;;;;;;;;;;4980122;28;20536;-57
2022/10/09 04:25:06;;;;;;;4.80;3.07;;;;;;;;;;4976079;28;20442;-57
2022/10/09 04:27:42;;;;;;;6.33;2.97;;;;;;;;;;4984915;28;20543;-57
2022/10/09 04:30:09;;;;;;;6.30;2.37;;;;;;;;;;4979794;28;20442;-58
2022/10/09 04:32:35;;;;;;;3.90;2.83;;;;;;;;;;5007930;28;20584;-57
2022/10/09 04:35:01;;;;;;;3.70;2.73;;;;;;;;;;4981361;28;20631;-57
2022/10/09 04:37:27;;;;;;;5.20;2.60;;;;;;;;;;4954534;28;20460;-58
2022/10/09 04:39:53;;;;;;;3.30;2.37;;;;;;;;;;4980692;28;20862;-58
2022/10/09 04:42:19;;;;;;;5.97;2.60;;;;;;;;;;4954554;28;20491;-58
2022/10/09 04:44:45;;;;;;;9.90;2.60;;;;;;;;;;4987084;28;20425;-56
2022/10/09 04:47:11;;;;;;;4.97;2.87;;;;;;;;;;4958422;28;20974;-57
2022/10/09 04:49:38;;;;;;;4.03;3.10;;;;;;;;;;4985206;28;20425;-56
2022/10/09 04:52:04;;;;;;;6.20;2.80;;;;;;;;;;4971931;28;20484;-57
2022/10/09 04:54:30;;;;;;;7.43;3.10;;;;;;;;;;4987290;28;20428;-55
2022/10/09 04:56:56;;;;;;;3.53;2.73;;;;;;;;;;4964091;28;20449;-57
2022/10/09 04:59:21;;;;;;;4.33;3.50;;;;;;;;;;4977083;28;20513;-57
2022/10/09 05:01:47;;;;;;;3.20;2.63;;;;;;;;;;4977986;28;20448;-56
2022/10/09 05:04:14;;;;;;;3.43;2.60;;;;;;;;;;4956180;28;21021;-57
2022/10/09 05:06:40;;;;;;;6.30;3.30;;;;;;;;;;4976932;28;20448;-56
2022/10/09 05:09:06;;;;;;;5.63;4.00;;;;;;;;;;4956799;28;20441;-56
2022/10/09 05:11:32;;;;;;;5.03;2.93;;;;;;;;;;4980107;28;20476;-56
2022/10/09 05:13:58;;;;;;;3.67;2.50;;;;;;;;;;4951535;28;20497;-56
2022/10/09 05:16:25;;;;;;;5.03;3.43;;;;;;;;;;4983719;28;20515;-56
2022/10/09 05:18:52;;;;;;;10.23;3.53;;;;;;;;;;4952096;28;20537;-56
2022/10/09 05:21:18;;;;;;;5.80;2.43;;;;;;;;;;4979154;28;20443;-56
2022/10/09 05:23:44;;;;;;;3.97;2.93;;;;;;;;;;4955217;28;20476;-55
2022/10/09 05:26:11;;;;;;;5.10;3.50;;;;;;;;;;4979458;28;21366;-55
2022/10/09 05:28:37;;;;;;;4.33;2.63;;;;;;;;;;5001814;28;20429;-56
2022/10/09 05:31:03;;;;;;;4.33;2.77;;;;;;;;;;4979255;28;20525;-56
2022/10/09 05:33:29;;;;;;;3.50;2.77;;;;;;;;;;4975595;28;20562;-56
2022/10/09 05:35:56;;;;;;;2.80;2.47;;;;;;;;;;4968254;28;20576;-55
2022/10/09 05:38:22;;;;;;;5.13;3.10;;;;;;;;;;4961204;28;20456;-56
2022/10/09 05:40:52;;;;;;;10.23;3.40;;;;;;;;;;4978238;28;20446;-56
2022/10/09 05:43:18;;;;;;;5.60;2.87;;;;;;;;;;4964335;28;20553;-55
2022/10/09 05:45:44;;;;;;;3.70;2.90;;;;;;;;;;4983919;28;20437;-56
2022/10/09 05:48:11;;;;;;;6.60;3.23;;;;;;;;;;4954856;28;20528;-55
2022/10/09 05:50:39;;;;;;;3.50;3.20;;;;;;;;;;4978604;28;21124;-56
2022/10/09 05:53:05;;;;;;;11.57;3.10;;;;;;;;;;4962275;28;20484;-56
2022/10/09 05:55:31;;;;;;;3.00;2.70;;;;;;;;;;4985343;28;20500;-56
2022/10/09 05:57:57;;;;;;;8.73;4.50;;;;;;;;;;4962816;28;20507;-56
2022/10/09 06:00:23;;;;;;;4.10;3.30;;;;;;;;;;4975778;28;20452;-56
2022/10/09 06:02:49;;;;;;;4.73;3.00;;;;;;;;;;4919790;28;20447;-55
2022/10/09 06:05:15;;;;;;;8.20;3.50;;;;;;;;;;4973565;28;20445;-56
2022/10/09 06:07:41;;;;;;;2.60;2.40;;;;;;;;;;4950012;28;20951;-55
2022/10/09 06:10:08;;;;;;;4.90;3.30;;;;;;;;;;4975996;28;20516;-54
2022/10/09 06:12:33;;;;;;;4.50;3.30;;;;;;;;;;4953388;28;20518;-56
2022/10/09 06:14:59;;;;;;;7.50;3.17;;;;;;;;;;4980099;28;20436;-55
2022/10/09 06:17:25;;;;;;;6.77;3.87;;;;;;;;;;4951812;28;20456;-55
2022/10/09 06:19:51;;;;;;;7.80;3.67;;;;;;;;;;4967786;28;20432;-55
2022/10/09 06:22:17;;;;;;;3.70;2.27;;;;;;;;;;4954235;28;21476;-56
2022/10/09 06:24:43;;;;;;;6.63;2.80;;;;;;;;;;4983645;28;20444;-56
2022/10/09 06:27:11;;;;;;;4.03;3.40;;;;;;;;;;4963997;28;21208;-55
2022/10/09 06:29:37;;;;;;;3.77;3.07;;;;;;;;;;4972354;28;20461;-55
2022/10/09 06:32:05;;;;;;;6.40;3.60;;;;;;;;;;4967361;28;22121;-56
2022/10/09 06:34:31;;;;;;;9.70;4.97;;;;;;;;;;4955858;28;20568;-57
2022/10/09 06:36:57;;;;;;;4.70;3.73;;;;;;;;;;4974593;28;20521;-54
2022/10/09 06:39:25;;;;;;;5.23;4.37;;;;;;;;;;4973904;28;21048;-56
2022/10/09 06:41:51;;;;;;;4.70;3.40;;;;;;;;;;4970835;28;20472;-57
2022/10/09 06:44:17;;;;;;;6.50;4.03;;;;;;;;;;4963719;28;20492;-56
2022/10/09 06:46:44;;;;;;;12.33;4.93;;;;;;;;;;4973538;28;20524;-57
2022/10/09 06:49:10;;;;;;;4.87;4.00;;;;;;;;;;4931029;28;20433;-58
2022/10/09 06:51:36;;;;;;;7.00;4.00;;;;;;;;;;4974303;28;20465;-57
2022/10/09 06:54:03;;;;;;;13.60;3.87;;;;;;;;;;4954008;28;20506;-56
2022/10/09 06:56:29;;;;;;;6.10;4.17;;;;;;;;;;4971523;28;20484;-56
2022/10/09 06:58:55;;;;;;;4.97;4.20;;;;;;;;;;4989003;28;20442;-58
2022/10/09 07:01:25;;;;;;;5.30;3.73;;;;;;;;;;4973814;28;20480;-55
2022/10/09 07:03:55;;;;;;;7.77;5.37;;;;;;;;;;4951178;28;24879;-55
2022/10/09 07:06:22;;;;;;;6.50;3.87;;;;;;;;;;4970099;28;20545;-55
2022/10/09 07:08:49;;;;;;;5.73;4.37;;;;;;;;;;4961802;28;20433;-55
2022/10/09 07:11:16;;;;;;;5.50;4.17;;;;;;;;;;4965863;28;20475;-57
2022/10/09 07:13:42;;;;;;;6.90;4.90;;;;;;;;;;4978086;28;21662;-55
2022/10/09 07:16:09;;;;;;;9.40;4.90;;;;;;;;;;4968970;28;20448;-55
2022/10/09 07:18:35;;;;;;;9.97;5.27;;;;;;;;;;4980200;28;20532;-56
2022/10/09 07:21:02;;;;;;;6.20;4.53;;;;;;;;;;4962524;28;20914;-55
2022/10/09 07:23:28;;;;;;;11.73;6.10;;;;;;;;;;4953494;28;21285;-55
2022/10/09 07:25:54;;;;;;;7.90;5.93;;;;;;;;;;4982339;28;20516;-57
2022/10/09 07:28:20;;;;;;;8.73;5.77;;;;;;;;;;4954141;28;21033;-57
2022/10/09 07:30:46;;;;;;;7.27;4.83;;;;;;;;;;4978252;28;21056;-56
2022/10/09 07:33:12;;;;;;;7.70;5.57;;;;;;;;;;4948465;28;20480;-54
2022/10/09 07:35:38;;;;;;;7.40;4.60;;;;;;;;;;4981342;28;20451;-54
2022/10/09 07:38:04;;;;;;;7.30;4.80;;;;;;;;;;4971848;28;20536;-55
2022/10/09 07:40:33;;;;;;;7.33;5.30;;;;;;;;;;4978882;28;20965;-55
2022/10/09 07:42:59;;;;;;;8.67;7.77;;;;;;;;;;4979008;28;20440;-56
2022/10/09 07:45:25;;;;;;;6.73;5.23;;;;;;;;;;4976131;28;20964;-56
2022/10/09 07:47:51;;;;;;;10.00;5.10;;;;;;;;;;4946902;28;20445;-56
2022/10/09 07:50:17;;;;;;;7.90;5.97;;;;;;;;;;4970014;28;20453;-55
2022/10/09 07:52:42;;;;;;;5.77;5.17;;;;;;;;;;4949974;28;20476;-55
2022/10/09 07:55:08;;;;;;;7.93;5.47;;;;;;;;;;4976320;28;20443;-56
2022/10/09 07:57:34;;;;;;;6.27;4.80;;;;;;;;;;4988101;28;20974;-55
2022/10/09 08:00:00;;;;;;;6.00;4.40;;;;;;;;;;4975440;28;20456;-56
2022/10/09 08:02:26;;;;;;;5.80;4.77;;;;;;;;;;4950866;28;21055;-55
2022/10/09 08:04:52;;;;;;;6.50;4.80;;;;;;;;;;4978546;28;20495;-56
2022/10/09 08:07:18;;;;;;;7.20;5.23;;;;;;;;;;4964041;28;20823;-54
2022/10/09 08:09:44;;;;;;;5.17;4.27;;;;;;;;;;4976429;28;20545;-55
2022/10/09 08:12:10;;;;;;;7.63;6.80;;;;;;;;;;4980604;28;20487;-56
2022/10/09 08:14:36;;;;;;;6.70;4.70;;;;;;;;;;4976381;28;20447;-55
2022/10/09 08:17:02;;;;;;;6.70;4.23;;;;;;;;;;4960347;28;20843;-55
2022/10/09 08:19:28;;;;;;;6.37;3.80;;;;;;;;;;4942053;28;20438;-54
2022/10/09 08:21:54;;;;;;;6.37;4.80;;;;;;;;;;4958036;28;20452;-55
2022/10/09 08:24:20;;;;;;;4.40;3.80;;;;;;;;;;4982079;28;20437;-56
2022/10/09 08:26:46;;;;;;;6.20;5.00;;;;;;;;;;4958117;28;20508;-55
2022/10/09 08:29:14;;;;;;;9.77;4.33;;;;;;;;;;4978818;28;20437;-56
2022/10/09 08:31:40;;;;;;;7.07;4.10;;;;;;;;;;4956687;28;20511;-55
2022/10/09 08:34:06;;;;;;;6.30;4.10;;;;;;;;;;4976600;28;20818;-56
2022/10/09 08:36:32;;;;;;;5.23;4.00;;;;;;;;;;4951532;28;20464;-57
2022/10/09 08:38:58;;;;;;;7.13;3.17;;;;;;;;;;4977666;28;24118;-57
2022/10/09 08:41:38;;;;;;;6.27;4.40;;;;;;;;;;4951517;28;20484;-56
2022/10/09 08:44:24;;;;;;;6.87;4.03;;;;;;;;;;5008700;28;21160;-56
2022/10/09 08:47:09;;;;;;;4.97;3.50;;;;;;;;;;4959473;28;20448;-56
2022/10/09 08:49:39;;;;;;;6.93;4.13;;;;;;;;;;4982534;28;20965;-55
2022/10/09 08:52:13;;;;;;;6.23;3.53;;;;;;;;;;4965229;28;20476;-55
2022/10/09 08:54:39;;;;;;;6.73;3.63;;;;;;;;;;4980718;28;20432;-55
2022/10/09 08:57:09;;;;;;;5.90;3.60;;;;;;;;;;4960619;28;20510;-56
2022/10/09 08:59:35;;;;;;;6.20;4.13;;;;;;;;;;5004723;28;20527;-55
2022/10/09 09:02:08;;;;;;;6.70;3.17;;;;;;;;;;4977670;28;20548;-54
2022/10/09 09:04:55;;;;;;;6.43;4.37;;;;;;;;;;4973886;28;20461;-56
2022/10/09 09:07:24;;;;;;;6.73;4.40;;;;;;;;;;4969995;28;20461;-55
2022/10/09 09:10:20;;;;;;;5.23;4.10;;;;;;;;;;4981187;28;20549;-57
2022/10/09 09:12:54;;;;;;;5.10;3.87;;;;;;;;;;4959837;28;20482;-56
2022/10/09 09:15:43;;;;;;;9.13;4.10;;;;;;;;;;4959492;28;20522;-54
2022/10/09 09:18:15;;;;;;;4.10;3.30;;;;;;;;;;4973305;28;20443;-56
2022/10/09 09:20:42;;;;;;;7.30;3.33;;;;;;;;;;4955560;28;20504;-56
2022/10/09 09:23:09;;;;;;;4.30;2.80;;;;;;;;;;4975385;28;20428;-56
2022/10/09 09:25:35;;;;;;;4.57;3.27;;;;;;;;;;4983883;28;20468;-56
2022/10/09 09:28:12;;;;;;;5.03;3.00;;;;;;;;;;4990634;28;20950;-57
2022/10/09 09:30:40;;;;;;;5.20;2.70;;;;;;;;;;4980187;28;21044;-56
2022/10/09 09:33:15;;;;;;;3.20;2.90;;;;;;;;;;4972008;28;20502;-56
2022/10/09 09:35:55;;;;;;;6.67;3.90;;;;;;;;;;4959986;28;20484;-57
2022/10/09 09:38:21;;;;;;;4.63;2.40;;;;;;;;;;4981847;28;21072;-56
2022/10/09 09:40:47;;;;;;;4.23;2.70;;;;;;;;;;4957854;28;20433;-56
2022/10/09 09:43:17;;;;;;;5.23;4.10;;;;;;;;;;5012611;28;20438;-56
2022/10/09 09:45:43;;;;;;;6.30;2.77;;;;;;;;;;4948725;28;21123;-56
2022/10/09 09:48:14;;;;;;;3.23;2.93;;;;;;;;;;4977690;28;20539;-56
2022/10/09 09:50:42;;;;;;;3.03;2.50;;;;;;;;;;5005099;28;20497;-56
2022/10/09 09:53:13;;;;;;;2.57;2.37;;;;;;;;;;4985321;28;20481;-56
2022/10/09 09:55:39;;;;;;;3.47;2.77;;;;;;;;;;4953791;28;20444;-56
2022/10/09 09:58:06;;;;;;;6.43;2.30;;;;;;;;;;4980796;28;20436;-56
2022/10/09 10:00:32;;;;;;;2.80;1.93;;;;;;;;;;4952731;28;20516;-56
2022/10/09 10:03:09;;;;;;;4.47;1.87;;;;;;;;;;4982834;28;20461;-56
2022/10/09 10:05:36;;;;;;;2.53;2.03;;;;;;;;;;4989899;28;21451;-57
2022/10/09 10:08:12;;;;;;;3.70;1.90;;;;;;;;;;4983991;28;20436;-56
2022/10/09 10:10:38;;;;;;;2.60;1.57;;;;;;;;;;4973329;28;21165;-57
2022/10/09 10:13:04;;;;;;;3.80;1.70;;;;;;;;;;4978877;28;20560;-55
2022/10/09 10:15:33;;;;;;;2.80;1.57;;;;;;;;;;4982059;28;21322;-56
2022/10/09 10:17:59;;;;;;;3.27;1.70;;;;;;;;;;4979664;28;20468;-56
2022/10/09 10:20:25;;;;;;;6.93;2.80;;;;;;;;;;4979559;28;20456;-56
2022/10/09 10:22:51;;;;;;;2.57;1.93;;;;;;;;;;4982849;28;20445;-58
2022/10/09 10:25:19;;;;;;;4.53;2.33;;;;;;;;;;4959564;28;21394;-55
2022/10/09 10:27:45;;;;;;;3.13;2.17;;;;;;;;;;4977587;28;20494;-56
2022/10/09 10:30:15;;;;;;;3.73;1.50;;;;;;;;;;5005288;28;20421;-56
2022/10/09 10:32:47;;;;;;;3.50;1.97;;;;;;;;;;4980976;28;20488;-56
2022/10/09 10:35:29;;;;;;;3.63;1.60;;;;;;;;;;4967067;28;21622;-56
2022/10/09 10:37:55;;;;;;;2.50;1.27;;;;;;;;;;4984587;28;20445;-56
2022/10/09 10:40:24;;;;;;;3.57;1.47;;;;;;;;;;4977963;28;20421;-57
2022/10/09 10:42:56;;;;;;;2.53;1.77;;;;;;;;;;4980609;28;20552;-56
2022/10/09 10:45:48;;;;;;;2.20;1.60;;;;;;;;;;4977580;28;20448;-55
2022/10/09 10:48:22;;;;;;;3.10;2.10;;;;;;;;;;4976626;28;20437;-57
2022/10/09 10:51:02;;;;;;;4.50;1.37;;;;;;;;;;4981391;28;20445;-56
2022/10/09 10:53:33;;;;;;;4.20;1.83;;;;;;;;;;4978104;28;20863;-56
2022/10/09 10:55:59;;;;;;;4.83;1.83;;;;;;;;;;4964907;28;20971;-57
2022/10/09 10:58:32;;;;;;;2.33;1.53;;;;;;;;;;4965920;28;20532;-56
2022/10/09 11:01:03;;;;;;;4.47;1.53;;;;;;;;;;4975757;28;20978;-56
2022/10/09 11:03:33;;;;;;;2.20;1.60;;;;;;;;;;5014419;28;20471;-56
2022/10/09 11:06:02;;;;;;;2.23;1.20;;;;;;;;;;4948021;28;20935;-55
2022/10/09 11:08:31;;;;;;;4.43;1.03;;;;;;;;;;4972285;28;20444;-56
2022/10/09 11:11:16;;;;;;;2.10;1.40;;;;;;;;;;4956129;28;20452;-57
2022/10/09 11:14:00;;;;;;;2.40;1.50;;;;;;;;;;4979630;28;20497;-54
2022/10/09 11:16:31;;;;;;;3.43;1.50;;;;;;;;;;4958744;28;20454;-59
2022/10/09 11:19:05;;;;;;;3.03;1.40;;;;;;;;;;4986335;28;20430;-56
2022/10/09 11:21:50;;;;;;;3.53;1.67;;;;;;;;;;4952460;28;20549;-55
2022/10/09 11:24:36;;;;;;;4.33;1.87;;;;;;;;;;4978772;28;20575;-54
2022/10/09 11:27:09;;;;;;;7.00;1.57;;;;;;;;;;4960466;28;20463;-55
2022/10/09 11:29:43;;;;;;;4.10;1.50;;;;;;;;;;4983925;28;20436;-54
2022/10/09 11:32:17;;;;;;;2.83;1.50;;;;;;;;;;4954027;28;21056;-54
2022/10/09 11:34:44;;;;;;;3.83;1.57;;;;;;;;;;4993514;28;20545;-54
2022/10/09 11:37:33;;;;;;;2.33;1.50;;;;;;;;;;4987143;28;20516;-55
2022/10/09 11:39:59;;;;;;;2.80;1.77;;;;;;;;;;4978514;28;20459;-53
2022/10/09 11:42:25;;;;;;;4.30;1.97;;;;;;;;;;4954747;28;20961;-54
2022/10/09 11:45:06;;;;;;;4.23;2.60;;;;;;;;;;4980726;28;20563;-54
2022/10/09 11:47:44;;;;;;;5.43;2.03;;;;;;;;;;4961798;28;20437;-54
2022/10/09 11:50:19;;;;;;;4.07;1.73;;;;;;;;;;4970215;28;20459;-55
2022/10/09 11:52:50;;;;;;;2.47;1.50;;;;;;;;;;4949901;28;20467;-54
2022/10/09 11:55:20;;;;;;;3.40;1.43;;;;;;;;;;5008358;28;20519;-54
2022/10/09 11:57:47;;;;;;;3.70;1.80;;;;;;;;;;4971798;28;21328;-55
2022/10/09 12:00:13;;;;;;;2.77;1.80;;;;;;;;;;4970945;28;20459;-54
2022/10/09 12:02:39;;;;;;;3.20;1.50;;;;;;;;;;4971684;28;20443;-54
2022/10/09 12:05:15;;;;;;;3.90;1.60;;;;;;;;;;4967177;28;20445;-54
2022/10/09 12:07:41;;;;;;;4.27;1.60;;;;;;;;;;5013193;28;20471;-55
2022/10/09 12:10:08;;;;;;;2.50;1.40;;;;;;;;;;4972814;28;20433;-54
2022/10/09 12:12:37;;;;;;;3.30;1.50;;;;;;;;;;4972963;28;20480;-54
2022/10/09 12:15:25;;;;;;;4.10;1.60;;;;;;;;;;4961231;28;20444;-53
2022/10/09 12:17:51;;;;;;;3.33;1.20;;;;;;;;;;4960204;28;20437;-54
2022/10/09 12:20:18;;;;;;;7.60;2.10;;;;;;;;;;4980338;28;20437;-54
2022/10/09 12:22:45;;;;;;;4.23;1.30;;;;;;;;;;4956810;28;20531;-53
2022/10/09 12:25:37;;;;;;;6.37;1.80;;;;;;;;;;4976234;28;20926;-53
2022/10/09 12:28:34;;;;;;;1.93;1.27;;;;;;;;;;4934837;28;22189;-53
2022/10/09 12:31:01;;;;;;;3.10;1.50;;;;;;;;;;4949298;28;20457;-54
2022/10/09 12:33:30;;;;;;;2.30;1.40;;;;;;;;;;4975716;28;21679;-53
2022/10/09 12:36:01;;;;;;;3.90;1.60;;;;;;;;;;4970312;28;20492;-55
2022/10/09 12:38:28;;;;;;;2.20;1.30;;;;;;;;;;4971291;28;20480;-54
2022/10/09 12:40:54;;;;;;;6.60;1.73;;;;;;;;;;4969667;28;20453;-55
2022/10/09 12:43:20;;;;;;;2.63;1.60;;;;;;;;;;4979069;28;20935;-55
2022/10/09 12:45:47;;;;;;;2.80;1.40;;;;;;;;;;4979577;28;20575;-55
2022/10/09 12:48:13;;;;;;;2.50;1.47;;;;;;;;;;5017195;28;20904;-55
2022/10/09 12:50:39;;;;;;;6.07;1.63;;;;;;;;;;4962635;28;20503;-54
2022/10/09 12:53:15;;;;;;;4.33;2.13;;;;;;;;;;4973410;28;21395;-54
2022/10/09 12:55:52;;;;;;;3.30;1.70;;;;;;;;;;4950882;28;20954;-54
2022/10/09 12:58:22;;;;;;;2.87;1.40;;;;;;;;;;4986518;28;20449;-53
2022/10/09 13:00:49;;;;;;;2.27;1.30;;;;;;;;;;4962483;28;20449;-54
2022/10/09 13:03:23;;;;;;;3.10;1.77;;;;;;;;;;4957991;28;20845;-54
2022/10/09 13:05:50;;;;;;;2.90;1.80;;;;;;;;;;4972048;28;21290;-54
2022/10/09 13:08:29;;;;;;;2.97;1.60;;;;;;;;;;4969095;28;20545;-53
2022/10/09 13:10:55;;;;;;;2.60;1.50;;;;;;;;;;4988670;28;20437;-54
2022/10/09 13:13:23;;;;;;;3.63;1.73;;;;;;;;;;4987554;28;20523;-55
2022/10/09 13:16:18;;;;;;;3.50;1.40;;;;;;;;;;4972455;28;20564;-54
2022/10/09 13:18:54;;;;;;;3.03;1.80;;;;;;;;;;4945253;28;20421;-55
2022/10/09 13:21:23;;;;;;;3.53;1.40;;;;;;;;;;4976775;28;20444;-55
2022/10/09 13:23:49;;;;;;;4.23;1.80;;;;;;;;;;4961667;28;20445;-54
2022/10/09 13:26:25;;;;;;;3.10;1.47;;;;;;;;;;4980153;28;20461;-55
2022/10/09 13:28:51;;;;;;;2.40;1.50;;;;;;;;;;4957017;28;20441;-55
2022/10/09 13:31:22;;;;;;;2.80;1.93;;;;;;;;;;5011258;28;20540;-54
2022/10/09 13:33:54;;;;;;;3.50;1.90;;;;;;;;;;4943313;28;20486;-55
2022/10/09 13:36:20;;;;;;;2.80;1.63;;;;;;;;;;4973108;28;20817;-53
2022/10/09 13:38:46;;;;;;;4.63;1.80;;;;;;;;;;4955853;28;20989;-55
2022/10/09 13:41:13;;;;;;;2.53;1.53;;;;;;;;;;4983725;28;20452;-54
2022/10/09 13:43:39;;;;;;;3.83;1.73;;;;;;;;;;5003843;28;20449;-54
2022/10/09 13:46:05;;;;;;;5.27;1.77;;;;;;;;;;4972081;28;20460;-55
2022/10/09 13:48:32;;;;;;;2.00;1.60;;;;;;;;;;4958275;28;20461;-55
2022/10/09 13:50:58;;;;;;;2.70;1.40;;;;;;;;;;4975795;28;20465;-55
2022/10/09 13:53:24;;;;;;;4.10;2.03;;;;;;;;;;4952572;28;20480;-54
2022/10/09 13:55:53;;;;;;;1.93;1.40;;;;;;;;;;4984541;28;20463;-54
2022/10/09 13:58:22;;;;;;;3.70;1.80;;;;;;;;;;4949849;28;20476;-53
2022/10/09 14:00:48;;;;;;;2.20;1.83;;;;;;;;;;4976353;28;20441;-53
2022/10/09 14:03:15;;;;;;;3.20;1.67;;;;;;;;;;4971975;28;20443;-55
2022/10/09 14:05:41;;;;;;;3.60;2.00;;;;;;;;;;4970916;28;20461;-55
2022/10/09 14:08:07;;;;;;;2.10;1.67;;;;;;;;;;4932141;28;20462;-53
2022/10/09 14:10:33;;;;;;;2.90;1.73;;;;;;;;;;4980075;28;20527;-55
2022/10/09 14:12:59;;;;;;;2.97;1.83;;;;;;;;;;4978325;28;20516;-54
2022/10/09 14:15:25;;;;;;;6.20;1.80;;;;;;;;;;4975222;28;20509;-54
2022/10/09 14:17:51;;;;;;;3.60;1.70;;;;;;;;;;4957589;28;20240;-54
2022/10/09 14:20:17;;;;;;;2.33;1.40;;;;;;;;;;4976031;28;20474;-54
2022/10/09 14:22:43;;;;;;;2.70;1.60;;;;;;;;;;4963646;28;20451;-57
2022/10/09 14:25:09;;;;;;;2.43;1.70;;;;;;;;;;4974771;28;20951;-55
2022/10/09 14:27:36;;;;;;;2.70;1.63;;;;;;;;;;4966038;28;20507;-54
2022/10/09 14:30:02;;;;;;;2.10;1.30;;;;;;;;;;4974961;28;20984;-53
2022/10/09 14:32:28;;;;;;;3.10;1.67;;;;;;;;;;4971291;28;20522;-54
2022/10/09 14:34:54;;;;;;;3.17;1.73;;;;;;;;;;4962937;28;20446;-54
2022/10/09 14:37:39;;;;;;;6.87;2.20;;;;;;;;;;4980434;28;20485;-53
2022/10/09 14:40:14;;;;;;;3.70;1.50;;;;;;;;;;4957376;28;20830;-53
2022/10/09 14:42:40;;;;;;;4.00;1.80;;;;;;;;;;4979872;28;20444;-53
2022/10/09 14:45:07;;;;;;;2.10;1.40;;;;;;;;;;4977791;28;20445;-53
2022/10/09 14:47:33;;;;;;;2.33;1.57;;;;;;;;;;4984588;28;20452;-54
2022/10/09 14:49:59;;;;;;;5.80;2.17;;;;;;;;;;4955588;28;22574;-52
2022/10/09 14:52:25;;;;;;;2.73;2.07;;;;;;;;;;4981868;28;20965;-54